sensor_id;sensor_type;location;lat;lon;timestamp;pressure;altitude;pressure_sealevel;temperature;humidity
31225;BME280;17847;31.524;74.366;2022-10-31T00:01:19;98865.63;;;21.84;74.42
31225;BME280;17847;31.524;74.366;2022-10-31T00:04:03;98866.00;;;21.73;75.00
31225;BME280;17847;31.524;74.366;2022-10-31T00:06:52;98862.78;;;21.55;75.72
31225;BME280;17847;31.524;74.366;2022-10-31T00:09:35;98876.34;;;21.70;75.16
31225;BME280;17847;31.524;74.366;2022-10-31T00:12:23;98879.88;;;21.76;74.80
31225;BME280;17847;31.524;74.366;2022-10-31T00:15:06;98877.44;;;21.75;74.50
31225;BME280;17847;31.524;74.366;2022-10-31T00:17:55;98880.19;;;21.69;74.84
31225;BME280;17847;31.524;74.366;2022-10-31T00:20:38;98873.97;;;21.59;75.10
31225;BME280;17847;31.524;74.366;2022-10-31T00:23:34;98880.56;;;21.58;75.24
31225;BME280;17847;31.524;74.366;2022-10-31T00:26:10;98878.09;;;21.56;75.05
31225;BME280;17847;31.524;74.366;2022-10-31T00:29:06;98889.00;;;21.61;75.25
31225;BME280;17847;31.524;74.366;2022-10-31T00:31:55;98887.88;;;21.67;74.78
31225;BME280;17847;31.524;74.366;2022-10-31T00:34:38;98898.28;;;21.55;75.00
31225;BME280;17847;31.524;74.366;2022-10-31T00:37:27;98901.53;;;21.62;74.78
31225;BME280;17847;31.524;74.366;2022-10-31T00:40:10;98906.00;;;21.38;75.64
31225;BME280;17847;31.524;74.366;2022-10-31T00:42:59;98908.19;;;21.46;76.05
31225;BME280;17847;31.524;74.366;2022-10-31T00:45:43;98907.06;;;21.52;75.29
31225;BME280;17847;31.524;74.366;2022-10-31T00:48:31;98902.75;;;21.46;75.43
31225;BME280;17847;31.524;74.366;2022-10-31T00:51:14;98904.94;;;21.44;75.69
31225;BME280;17847;31.524;74.366;2022-10-31T00:54:09;98908.19;;;21.46;75.40
31225;BME280;17847;31.524;74.366;2022-10-31T00:56:52;98907.06;;;21.52;75.59
31225;BME280;17847;31.524;74.366;2022-10-31T00:59:40;98908.06;;;21.66;74.79
31225;BME280;17847;31.524;74.366;2022-10-31T01:02:23;98911.44;;;21.43;75.45
31225;BME280;17847;31.524;74.366;2022-10-31T01:05:19;98903.56;;;21.46;75.46
31225;BME280;17847;31.524;74.366;2022-10-31T01:08:02;98922.66;;;21.36;75.50
31225;BME280;17847;31.524;74.366;2022-10-31T01:11:04;98908.47;;;21.44;75.46
31225;BME280;17847;31.524;74.366;2022-10-31T01:13:49;98917.72;;;21.43;75.38
31225;BME280;17847;31.524;74.366;2022-10-31T01:16:39;98923.44;;;21.42;75.53
31225;BME280;17847;31.524;74.366;2022-10-31T01:19:22;98926.47;;;21.45;75.29
31225;BME280;17847;31.524;74.366;2022-10-31T01:22:17;98928.63;;;21.43;75.65
31225;BME280;17847;31.524;74.366;2022-10-31T01:24:53;98928.91;;;21.42;75.28
31225;BME280;17847;31.524;74.366;2022-10-31T01:27:48;98935.50;;;21.46;75.77
31225;BME280;17847;31.524;74.366;2022-10-31T01:30:24;98943.69;;;21.41;75.53
31225;BME280;17847;31.524;74.366;2022-10-31T01:33:19;98943.16;;;21.44;75.63
31225;BME280;17847;31.524;74.366;2022-10-31T01:36:28;98949.94;;;21.41;75.16
31225;BME280;17847;31.524;74.366;2022-10-31T01:39:13;98954.34;;;21.37;75.74
31225;BME280;17847;31.524;74.366;2022-10-31T01:42:02;98953.75;;;21.50;75.45
31225;BME280;17847;31.524;74.366;2022-10-31T01:45:12;98960.56;;;21.58;75.06
31225;BME280;17847;31.524;74.366;2022-10-31T01:48:14;98951.03;;;21.50;74.63
31225;BME280;17847;31.524;74.366;2022-10-31T01:50:57;98951.34;;;21.39;74.61
31225;BME280;17847;31.524;74.366;2022-10-31T01:53:46;98953.50;;;21.42;74.41
31225;BME280;17847;31.524;74.366;2022-10-31T01:56:31;98965.81;;;21.44;74.93
31225;BME280;17847;31.524;74.366;2022-10-31T01:59:24;98965.50;;;21.51;75.18
31225;BME280;17847;31.524;74.366;2022-10-31T02:02:09;98969.81;;;21.67;74.16
31225;BME280;17847;31.524;74.366;2022-10-31T02:05:08;98977.38;;;21.86;74.28
31225;BME280;17847;31.524;74.366;2022-10-31T02:08:00;98974.03;;;21.94;73.61
31225;BME280;17847;31.524;74.366;2022-10-31T02:10:58;98986.31;;;21.92;73.80
31225;BME280;17847;31.524;74.366;2022-10-31T02:13:42;98986.81;;;22.04;74.25
31225;BME280;17847;31.524;74.366;2022-10-31T02:16:30;98983.22;;;22.08;76.52
31225;BME280;17847;31.524;74.366;2022-10-31T02:19:19;98991.94;;;22.16;76.07
31225;BME280;17847;31.524;74.366;2022-10-31T02:32:00;99008.72;;;22.43;75.06
31225;BME280;17847;31.524;74.366;2022-10-31T02:41:27;99019.19;;;22.71;73.39
31225;BME280;17847;31.524;74.366;2022-10-31T02:44:36;99023.72;;;22.85;73.37
31225;BME280;17847;31.524;74.366;2022-10-31T02:47:32;99034.13;;;22.83;70.80
31225;BME280;17847;31.524;74.366;2022-10-31T02:50:25;99024.69;;;22.95;71.87
31225;BME280;17847;31.524;74.366;2022-10-31T02:53:16;99037.41;;;22.85;69.69
31225;BME280;17847;31.524;74.366;2022-10-31T02:56:04;99036.13;;;23.02;69.72
31225;BME280;17847;31.524;74.366;2022-10-31T02:59:04;99025.47;;;23.05;68.64
31225;BME280;17847;31.524;74.366;2022-10-31T03:10:58;99041.44;;;23.22;65.89
31225;BME280;17847;31.524;74.366;2022-10-31T03:13:52;99052.53;;;23.36;68.03
31225;BME280;17847;31.524;74.366;2022-10-31T03:16:53;99055.16;;;23.71;66.78
31225;BME280;17847;31.524;74.366;2022-10-31T03:19:46;99064.94;;;23.77;66.15
31225;BME280;17847;31.524;74.366;2022-10-31T03:22:40;99067.13;;;23.80;65.87
31225;BME280;17847;31.524;74.366;2022-10-31T03:25:25;99062.34;;;23.91;66.47
31225;BME280;17847;31.524;74.366;2022-10-31T03:28:15;99069.19;;;24.12;64.94
31225;BME280;17847;31.524;74.366;2022-10-31T03:31:00;99068.19;;;24.27;67.17
31225;BME280;17847;31.524;74.366;2022-10-31T03:33:54;99065.34;;;24.13;64.41
31225;BME280;17847;31.524;74.366;2022-10-31T03:36:40;99070.19;;;24.40;64.26
31225;BME280;17847;31.524;74.366;2022-10-31T03:39:30;99071.22;;;24.45;63.16
31225;BME280;17847;31.524;74.366;2022-10-31T03:42:20;99065.22;;;24.61;64.40
31225;BME280;17847;31.524;74.366;2022-10-31T03:45:20;99064.31;;;24.66;62.93
31225;BME280;17847;31.524;74.366;2022-10-31T03:48:05;99064.75;;;24.73;60.89
31225;BME280;17847;31.524;74.366;2022-10-31T03:51:20;99075.09;;;24.95;61.39
31225;BME280;17847;31.524;74.366;2022-10-31T04:00:32;99060.97;;;25.35;58.17
31225;BME280;17847;31.524;74.366;2022-10-31T04:03:27;99073.22;;;25.84;61.05
31225;BME280;17847;31.524;74.366;2022-10-31T04:06:14;99076.91;;;26.07;59.18
31225;BME280;17847;31.524;74.366;2022-10-31T04:09:08;99063.50;;;26.28;55.76
31225;BME280;17847;31.524;74.366;2022-10-31T04:11:54;99066.50;;;26.54;56.37
31225;BME280;17847;31.524;74.366;2022-10-31T04:15:05;99060.31;;;26.94;53.95
31225;BME280;17847;31.524;74.366;2022-10-31T04:17:51;99056.63;;;26.99;56.62
31225;BME280;17847;31.524;74.366;2022-10-31T04:20:43;99057.63;;;27.25;56.94
31225;BME280;17847;31.524;74.366;2022-10-31T04:23:26;99062.31;;;27.65;54.70
31225;BME280;17847;31.524;74.366;2022-10-31T04:26:30;99064.50;;;27.85;57.04
31225;BME280;17847;31.524;74.366;2022-10-31T04:29:13;99071.66;;;27.86;54.52
31225;BME280;17847;31.524;74.366;2022-10-31T04:32:01;99054.72;;;28.19;53.23
31225;BME280;17847;31.524;74.366;2022-10-31T04:34:58;99057.16;;;28.21;52.90
31225;BME280;17847;31.524;74.366;2022-10-31T04:37:40;99059.91;;;28.29;56.43
31225;BME280;17847;31.524;74.366;2022-10-31T04:40:29;99065.09;;;28.31;53.86
31225;BME280;17847;31.524;74.366;2022-10-31T04:43:08;99071.94;;;28.51;56.38
31225;BME280;17847;31.524;74.366;2022-10-31T04:46:05;99061.03;;;29.16;54.42
31225;BME280;17847;31.524;74.366;2022-10-31T04:48:41;99070.34;;;28.76;52.52
31225;BME280;17847;31.524;74.366;2022-10-31T04:51:36;99070.00;;;28.95;52.59
31225;BME280;17847;31.524;74.366;2022-10-31T04:54:19;99069.31;;;29.16;51.08
31225;BME280;17847;31.524;74.366;2022-10-31T04:57:07;99064.28;;;29.18;48.89
31225;BME280;17847;31.524;74.366;2022-10-31T04:59:50;99068.13;;;29.34;47.04
31225;BME280;17847;31.524;74.366;2022-10-31T05:02:46;99073.56;;;28.87;49.45
31225;BME280;17847;31.524;74.366;2022-10-31T05:05:30;99061.53;;;29.18;49.61
31225;BME280;17847;31.524;74.366;2022-10-31T05:08:19;99065.06;;;29.09;48.57
31225;BME280;17847;31.524;74.366;2022-10-31T05:11:05;99063.28;;;29.70;53.05
31225;BME280;17847;31.524;74.366;2022-10-31T05:13:54;99058.66;;;29.82;48.88
31225;BME280;17847;31.524;74.366;2022-10-31T05:16:57;99066.66;;;29.84;47.68
31225;BME280;17847;31.524;74.366;2022-10-31T05:20:12;99061.78;;;29.72;47.46
31225;BME280;17847;31.524;74.366;2022-10-31T05:23:27;99069.56;;;30.17;49.20
31225;BME280;17847;31.524;74.366;2022-10-31T05:26:15;99066.56;;;30.22;50.09
31225;BME280;17847;31.524;74.366;2022-10-31T05:28:59;99066.78;;;29.88;48.53
31225;BME280;17847;31.524;74.366;2022-10-31T05:31:47;99063.44;;;30.03;47.86
31225;BME280;17847;31.524;74.366;2022-10-31T05:34:56;99068.19;;;30.23;48.41
31225;BME280;17847;31.524;74.366;2022-10-31T05:38:09;99049.59;;;30.54;50.39
31225;BME280;17847;31.524;74.366;2022-10-31T05:40:58;99048.53;;;30.79;47.61
31225;BME280;17847;31.524;74.366;2022-10-31T05:43:39;99043.19;;;30.95;45.47
31225;BME280;17847;31.524;74.366;2022-10-31T05:46:36;99045.19;;;30.32;47.47
31225;BME280;17847;31.524;74.366;2022-10-31T05:49:21;99048.09;;;30.56;49.74
31225;BME280;17847;31.524;74.366;2022-10-31T05:52:35;99030.38;;;30.70;46.43
31225;BME280;17847;31.524;74.366;2022-10-31T05:55:25;99029.06;;;30.34;45.12
31225;BME280;17847;31.524;74.366;2022-10-31T05:58:25;99029.84;;;30.55;45.62
31225;BME280;17847;31.524;74.366;2022-10-31T06:01:08;99029.56;;;30.69;44.89
31225;BME280;17847;31.524;74.366;2022-10-31T06:03:56;99029.97;;;30.59;44.34
31225;BME280;17847;31.524;74.366;2022-10-31T06:06:39;99038.13;;;30.76;45.36
31225;BME280;17847;31.524;74.366;2022-10-31T06:09:34;99025.47;;;30.54;45.24
31225;BME280;17847;31.524;74.366;2022-10-31T06:12:20;99027.00;;;30.22;43.86
31225;BME280;17847;31.524;74.366;2022-10-31T06:15:36;99020.25;;;30.53;43.08
31225;BME280;17847;31.524;74.366;2022-10-31T06:18:12;99019.81;;;30.84;44.13
31225;BME280;17847;31.524;74.366;2022-10-31T06:21:09;99013.41;;;31.05;43.91
31225;BME280;17847;31.524;74.366;2022-10-31T06:23:50;99007.66;;;30.76;44.78
31225;BME280;17847;31.524;74.366;2022-10-31T06:27:01;99005.16;;;31.41;44.22
31225;BME280;17847;31.524;74.366;2022-10-31T06:29:44;99000.97;;;31.35;47.64
31225;BME280;17847;31.524;74.366;2022-10-31T06:32:41;98999.59;;;31.29;44.16
31225;BME280;17847;31.524;74.366;2022-10-31T06:35:24;98995.41;;;31.11;44.81
31225;BME280;17847;31.524;74.366;2022-10-31T06:38:19;98986.34;;;31.47;44.93
31225;BME280;17847;31.524;74.366;2022-10-31T06:41:05;98988.53;;;31.54;45.87
31225;BME280;17847;31.524;74.366;2022-10-31T06:43:55;98971.19;;;31.32;47.00
31225;BME280;17847;31.524;74.366;2022-10-31T06:46:51;98985.00;;;31.08;44.88
31225;BME280;17847;31.524;74.366;2022-10-31T06:50:09;98984.34;;;31.35;44.61
31225;BME280;17847;31.524;74.366;2022-10-31T06:52:57;98975.34;;;31.26;46.22
31225;BME280;17847;31.524;74.366;2022-10-31T06:55:55;98975.56;;;31.21;42.22
31225;BME280;17847;31.524;74.366;2022-10-31T06:58:36;98971.41;;;31.27;41.65
31225;BME280;17847;31.524;74.366;2022-10-31T07:01:51;98965.59;;;31.20;42.01
31225;BME280;17847;31.524;74.366;2022-10-31T07:04:27;98962.72;;;31.41;45.62
31225;BME280;17847;31.524;74.366;2022-10-31T07:07:24;98949.78;;;30.96;42.07
31225;BME280;17847;31.524;74.366;2022-10-31T07:10:07;98943.31;;;31.29;44.77
31225;BME280;17847;31.524;74.366;2022-10-31T07:13:06;98941.16;;;31.59;43.63
31225;BME280;17847;31.524;74.366;2022-10-31T07:15:54;98934.53;;;31.39;42.50
31225;BME280;17847;31.524;74.366;2022-10-31T07:18:43;98935.59;;;31.47;45.14
31225;BME280;17847;31.524;74.366;2022-10-31T07:21:28;98925.41;;;31.14;41.73
31225;BME280;17847;31.524;74.366;2022-10-31T07:24:24;98918.63;;;31.48;44.88
31225;BME280;17847;31.524;74.366;2022-10-31T07:27:28;98911.66;;;31.30;43.38
31225;BME280;17847;31.524;74.366;2022-10-31T07:30:23;98905.09;;;31.10;41.27
31225;BME280;17847;31.524;74.366;2022-10-31T07:32:59;98899.19;;;30.99;40.63
31225;BME280;17847;31.524;74.366;2022-10-31T07:36:12;98886.69;;;31.30;40.47
31225;BME280;17847;31.524;74.366;2022-10-31T07:39:01;98884.28;;;31.28;42.17
31225;BME280;17847;31.524;74.366;2022-10-31T07:41:49;98875.94;;;31.40;40.01
31225;BME280;17847;31.524;74.366;2022-10-31T07:44:33;98874.00;;;31.29;39.21
31225;BME280;17847;31.524;74.366;2022-10-31T07:47:44;98872.72;;;31.38;42.50
31225;BME280;17847;31.524;74.366;2022-10-31T07:50:47;98870.44;;;31.03;40.38
31225;BME280;17847;31.524;74.366;2022-10-31T07:54:18;98860.72;;;31.22;39.10
31225;BME280;17847;31.524;74.366;2022-10-31T07:56:54;98859.44;;;30.82;39.49
31225;BME280;17847;31.524;74.366;2022-10-31T07:59:49;98851.13;;;30.82;41.12
31225;BME280;17847;31.524;74.366;2022-10-31T08:02:41;98841.22;;;31.18;40.25
31225;BME280;17847;31.524;74.366;2022-10-31T08:06:05;98838.09;;;31.08;37.26
31225;BME280;17847;31.524;74.366;2022-10-31T08:08:56;98832.31;;;31.25;39.40
31225;BME280;17847;31.524;74.366;2022-10-31T08:11:47;98834.06;;;31.05;38.63
31225;BME280;17847;31.524;74.366;2022-10-31T08:14:32;98827.94;;;30.75;40.56
31225;BME280;17847;31.524;74.366;2022-10-31T08:17:27;98821.94;;;31.10;38.11
31225;BME280;17847;31.524;74.366;2022-10-31T08:20:05;98814.28;;;30.70;37.27
31225;BME280;17847;31.524;74.366;2022-10-31T08:23:04;98810.03;;;31.09;39.82
31225;BME280;17847;31.524;74.366;2022-10-31T08:25:42;98815.13;;;30.95;38.43
31225;BME280;17847;31.524;74.366;2022-10-31T08:28:37;98809.13;;;31.05;40.10
31225;BME280;17847;31.524;74.366;2022-10-31T08:31:13;98799.53;;;31.02;39.57
31225;BME280;17847;31.524;74.366;2022-10-31T08:34:32;98793.16;;;31.14;39.74
31225;BME280;17847;31.524;74.366;2022-10-31T08:37:52;98789.09;;;31.24;40.10
31225;BME280;17847;31.524;74.366;2022-10-31T08:40:38;98786.22;;;31.08;37.65
31225;BME280;17847;31.524;74.366;2022-10-31T08:43:26;98784.09;;;31.30;36.16
31225;BME280;17847;31.524;74.366;2022-10-31T08:46:09;98778.72;;;31.21;37.67
31225;BME280;17847;31.524;74.366;2022-10-31T08:49:04;98783.13;;;31.10;37.61
31225;BME280;17847;31.524;74.366;2022-10-31T08:51:50;98774.13;;;31.00;37.21
31225;BME280;17847;31.524;74.366;2022-10-31T08:54:43;98775.25;;;30.87;38.23
31225;BME280;17847;31.524;74.366;2022-10-31T08:58:01;98763.59;;;31.06;36.87
31225;BME280;17847;31.524;74.366;2022-10-31T09:00:55;98765.09;;;31.16;37.28
31225;BME280;17847;31.524;74.366;2022-10-31T09:03:42;98762.53;;;31.11;35.73
31225;BME280;17847;31.524;74.366;2022-10-31T09:06:32;98760.44;;;31.20;37.45
31225;BME280;17847;31.524;74.366;2022-10-31T09:09:28;98753.81;;;30.72;36.87
31225;BME280;17847;31.524;74.366;2022-10-31T09:12:25;98760.50;;;30.83;36.42
31225;BME280;17847;31.524;74.366;2022-10-31T09:15:19;98748.59;;;31.07;37.66
31225;BME280;17847;31.524;74.366;2022-10-31T09:18:27;98742.25;;;30.94;40.27
31225;BME280;17847;31.524;74.366;2022-10-31T09:21:03;98739.69;;;30.89;37.72
31225;BME280;17847;31.524;74.366;2022-10-31T09:23:59;98738.78;;;31.10;38.26
31225;BME280;17847;31.524;74.366;2022-10-31T09:26:42;98739.47;;;31.07;37.86
31225;BME280;17847;31.524;74.366;2022-10-31T09:29:34;98731.41;;;31.01;37.92
31225;BME280;17847;31.524;74.366;2022-10-31T09:32:13;98726.06;;;31.09;38.63
31225;BME280;17847;31.524;74.366;2022-10-31T09:35:09;98727.91;;;31.05;39.67
31225;BME280;17847;31.524;74.366;2022-10-31T09:37:58;98729.78;;;30.88;41.22
31225;BME280;17847;31.524;74.366;2022-10-31T09:50:39;98717.69;;;30.80;38.95
31225;BME280;17847;31.524;74.366;2022-10-31T09:56:50;98709.13;;;30.98;38.10
31225;BME280;17847;31.524;74.366;2022-10-31T09:59:40;98710.03;;;31.02;38.75
31225;BME280;17847;31.524;74.366;2022-10-31T10:02:39;98711.75;;;30.82;41.57
31225;BME280;17847;31.524;74.366;2022-10-31T10:05:50;98703.50;;;30.57;38.48
31225;BME280;17847;31.524;74.366;2022-10-31T10:08:55;98699.13;;;30.56;41.26
31225;BME280;17847;31.524;74.366;2022-10-31T10:12:32;98696.44;;;30.48;40.99
31225;BME280;17847;31.524;74.366;2022-10-31T10:15:32;98697.50;;;30.31;41.20
31225;BME280;17847;31.524;74.366;2022-10-31T10:21:58;98686.19;;;30.36;42.47
31225;BME280;17847;31.524;74.366;2022-10-31T10:28:04;98682.03;;;30.17;44.53
31225;BME280;17847;31.524;74.366;2022-10-31T10:30:59;98680.63;;;30.11;44.52
31225;BME280;17847;31.524;74.366;2022-10-31T10:39:47;98682.81;;;29.93;44.71
31225;BME280;17847;31.524;74.366;2022-10-31T10:42:31;98682.66;;;29.77;45.65
31225;BME280;17847;31.524;74.366;2022-10-31T10:45:38;98675.63;;;29.80;46.78
31225;BME280;17847;31.524;74.366;2022-10-31T10:48:41;98671.31;;;29.70;46.92
31225;BME280;17847;31.524;74.366;2022-10-31T10:58:02;98675.84;;;29.75;46.01
31225;BME280;17847;31.524;74.366;2022-10-31T11:00:46;98669.34;;;29.58;47.68
31225;BME280;17847;31.524;74.366;2022-10-31T11:03:35;98671.72;;;29.47;48.14
31225;BME280;17847;31.524;74.366;2022-10-31T11:06:21;98669.41;;;29.50;47.69
31225;BME280;17847;31.524;74.366;2022-10-31T11:09:10;98670.25;;;29.29;48.40
31225;BME280;17847;31.524;74.366;2022-10-31T11:11:53;98669.78;;;29.27;47.47
31225;BME280;17847;31.524;74.366;2022-10-31T11:14:52;98666.34;;;29.30;48.89
31225;BME280;17847;31.524;74.366;2022-10-31T11:17:40;98667.16;;;29.09;50.10
31225;BME280;17847;31.524;74.366;2022-10-31T11:20:36;98672.97;;;28.96;50.54
31225;BME280;17847;31.524;74.366;2022-10-31T11:23:19;98671.00;;;28.96;50.80
31225;BME280;17847;31.524;74.366;2022-10-31T11:26:21;98670.94;;;28.84;52.57
31225;BME280;17847;31.524;74.366;2022-10-31T11:29:04;98678.47;;;28.75;51.97
31225;BME280;17847;31.524;74.366;2022-10-31T11:31:57;98677.72;;;28.65;52.30
31225;BME280;17847;31.524;74.366;2022-10-31T11:34:37;98682.00;;;28.54;52.59
31225;BME280;17847;31.524;74.366;2022-10-31T11:37:42;98691.47;;;28.44;53.07
31225;BME280;17847;31.524;74.366;2022-10-31T11:40:26;98689.41;;;28.33;54.46
31225;BME280;17847;31.524;74.366;2022-10-31T11:43:22;98682.66;;;28.21;55.21
31225;BME280;17847;31.524;74.366;2022-10-31T11:46:17;98692.91;;;28.12;54.39
31225;BME280;17847;31.524;74.366;2022-10-31T11:49:15;98697.00;;;28.06;54.31
31225;BME280;17847;31.524;74.366;2022-10-31T11:52:00;98701.09;;;28.00;53.97
31225;BME280;17847;31.524;74.366;2022-10-31T11:55:13;98705.81;;;27.90;55.33
31225;BME280;17847;31.524;74.366;2022-10-31T11:57:56;98710.41;;;27.69;56.11
31225;BME280;17847;31.524;74.366;2022-10-31T12:00:50;98714.28;;;27.68;55.68
31225;BME280;17847;31.524;74.366;2022-10-31T12:06:51;98714.16;;;27.56;56.51
31225;BME280;17847;31.524;74.366;2022-10-31T12:09:36;98725.66;;;27.58;56.18
31225;BME280;17847;31.524;74.366;2022-10-31T12:12:36;98717.38;;;27.49;56.90
31225;BME280;17847;31.524;74.366;2022-10-31T12:19:05;98727.94;;;27.56;56.19
31225;BME280;17847;31.524;74.366;2022-10-31T12:21:55;98727.13;;;27.46;56.35
31225;BME280;17847;31.524;74.366;2022-10-31T12:31:20;98730.69;;;27.29;56.76
31225;BME280;17847;31.524;74.366;2022-10-31T12:58:38;98745.53;;;26.93;58.38
31225;BME280;17847;31.524;74.366;2022-10-31T13:02:00;98743.78;;;26.89;59.14
31225;BME280;17847;31.524;74.366;2022-10-31T13:05:02;98753.97;;;26.97;58.70
31225;BME280;17847;31.524;74.366;2022-10-31T13:08:01;98755.28;;;26.91;58.90
31225;BME280;17847;31.524;74.366;2022-10-31T13:10:52;98762.56;;;26.87;59.38
31225;BME280;17847;31.524;74.366;2022-10-31T13:14:05;98766.44;;;26.86;59.38
31225;BME280;17847;31.524;74.366;2022-10-31T13:16:49;98757.66;;;26.75;59.44
31225;BME280;17847;31.524;74.366;2022-10-31T13:19:41;98765.59;;;26.68;60.43
31225;BME280;17847;31.524;74.366;2022-10-31T13:22:31;98765.66;;;26.54;60.64
31225;BME280;17847;31.524;74.366;2022-10-31T13:25:36;98773.41;;;26.52;61.01
31225;BME280;17847;31.524;74.366;2022-10-31T13:31:41;98782.56;;;26.61;61.38
31225;BME280;17847;31.524;74.366;2022-10-31T13:34:54;98775.28;;;26.65;61.40
31225;BME280;17847;31.524;74.366;2022-10-31T13:37:41;98781.19;;;26.50;62.27
31225;BME280;17847;31.524;74.366;2022-10-31T13:46:42;98800.59;;;26.45;61.83
31225;BME280;17847;31.524;74.366;2022-10-31T13:52:24;98805.94;;;26.50;61.44
31225;BME280;17847;31.524;74.366;2022-10-31T13:55:43;98813.88;;;26.43;62.06
31225;BME280;17847;31.524;74.366;2022-10-31T13:59:04;98816.63;;;26.43;62.77
31225;BME280;17847;31.524;74.366;2022-10-31T14:01:47;98818.53;;;26.33;63.32
31225;BME280;17847;31.524;74.366;2022-10-31T14:04:59;98827.03;;;26.23;63.79
31225;BME280;17847;31.524;74.366;2022-10-31T14:07:43;98824.72;;;26.16;64.02
31225;BME280;17847;31.524;74.366;2022-10-31T14:10:47;98829.94;;;26.18;63.52
31225;BME280;17847;31.524;74.366;2022-10-31T14:16:30;98832.97;;;26.16;64.19
31225;BME280;17847;31.524;74.366;2022-10-31T14:19:13;98842.16;;;26.12;64.01
31225;BME280;17847;31.524;74.366;2022-10-31T14:22:21;98840.94;;;26.18;64.17
31225;BME280;17847;31.524;74.366;2022-10-31T14:24:58;98842.81;;;26.09;64.48
31225;BME280;17847;31.524;74.366;2022-10-31T14:27:54;98856.06;;;26.07;64.89
31225;BME280;17847;31.524;74.366;2022-10-31T14:30:30;98851.19;;;26.04;64.45
31225;BME280;17847;31.524;74.366;2022-10-31T14:33:30;98856.69;;;26.04;65.16
31225;BME280;17847;31.524;74.366;2022-10-31T14:36:50;98853.94;;;26.04;65.00
31225;BME280;17847;31.524;74.366;2022-10-31T14:49:31;98859.28;;;25.86;65.46
31225;BME280;17847;31.524;74.366;2022-10-31T14:52:18;98858.88;;;25.79;65.53
31225;BME280;17847;31.524;74.366;2022-10-31T14:55:11;98862.78;;;25.78;65.85
31225;BME280;17847;31.524;74.366;2022-10-31T14:58:01;98863.56;;;25.78;65.74
31225;BME280;17847;31.524;74.366;2022-10-31T15:00:58;98865.53;;;25.78;65.87
31225;BME280;17847;31.524;74.366;2022-10-31T15:03:44;98862.38;;;25.71;65.88
31225;BME280;17847;31.524;74.366;2022-10-31T15:07:24;98861.44;;;25.75;66.26
31225;BME280;17847;31.524;74.366;2022-10-31T15:10:23;98871.88;;;25.65;65.87
31225;BME280;17847;31.524;74.366;2022-10-31T15:13:21;98873.47;;;25.66;66.20
31225;BME280;17847;31.524;74.366;2022-10-31T15:15:57;98869.13;;;25.65;66.26
31225;BME280;17847;31.524;74.366;2022-10-31T15:19:02;98880.94;;;25.65;66.65
31225;BME280;17847;31.524;74.366;2022-10-31T15:21:43;98871.47;;;25.57;66.29
31225;BME280;17847;31.524;74.366;2022-10-31T15:24:39;98869.66;;;25.53;66.42
31225;BME280;17847;31.524;74.366;2022-10-31T15:27:18;98877.09;;;25.52;66.18
31225;BME280;17847;31.524;74.366;2022-10-31T15:33:14;98870.69;;;25.57;65.01
31225;BME280;17847;31.524;74.366;2022-10-31T15:36:05;98876.97;;;25.57;66.64
31225;BME280;17847;31.524;74.366;2022-10-31T15:38:49;98877.78;;;25.58;65.87
31225;BME280;17847;31.524;74.366;2022-10-31T15:41:53;98883.06;;;25.68;65.76
31225;BME280;17847;31.524;74.366;2022-10-31T15:44:39;98884.72;;;25.55;65.14
31225;BME280;17847;31.524;74.366;2022-10-31T15:47:31;98877.97;;;25.62;64.80
31225;BME280;17847;31.524;74.366;2022-10-31T15:50:33;98880.34;;;25.54;64.81
31225;BME280;17847;31.524;74.366;2022-10-31T15:53:46;98877.22;;;25.47;66.01
31225;BME280;17847;31.524;74.366;2022-10-31T15:56:31;98878.47;;;25.64;65.20
31225;BME280;17847;31.524;74.366;2022-10-31T15:59:24;98870.53;;;25.62;64.36
31225;BME280;17847;31.524;74.366;2022-10-31T16:02:11;98869.81;;;25.70;64.83
31225;BME280;17847;31.524;74.366;2022-10-31T16:05:01;98879.63;;;25.63;64.87
31225;BME280;17847;31.524;74.366;2022-10-31T16:07:51;98873.28;;;25.62;65.63
31225;BME280;17847;31.524;74.366;2022-10-31T16:10:40;98881.16;;;25.55;65.64
31225;BME280;17847;31.524;74.366;2022-10-31T16:13:40;98886.31;;;25.56;65.84
31225;BME280;17847;31.524;74.366;2022-10-31T16:16:31;98888.56;;;25.54;65.88
31225;BME280;17847;31.524;74.366;2022-10-31T16:19:32;98884.41;;;25.43;66.12
31225;BME280;17847;31.524;74.366;2022-10-31T16:22:28;98883.31;;;25.44;65.67
31225;BME280;17847;31.524;74.366;2022-10-31T16:25:14;98896.72;;;25.59;65.10
31225;BME280;17847;31.524;74.366;2022-10-31T16:28:05;98892.88;;;25.47;65.12
31225;BME280;17847;31.524;74.366;2022-10-31T16:31:00;98897.84;;;25.58;64.96
31225;BME280;17847;31.524;74.366;2022-10-31T16:34:14;98901.59;;;25.63;64.45
31225;BME280;17847;31.524;74.366;2022-10-31T16:37:01;98899.91;;;25.53;64.96
31225;BME280;17847;31.524;74.366;2022-10-31T16:39:50;98906.25;;;25.62;65.48
31225;BME280;17847;31.524;74.366;2022-10-31T16:42:33;98914.41;;;25.67;64.22
31225;BME280;17847;31.524;74.366;2022-10-31T16:45:23;98907.09;;;25.63;63.95
31225;BME280;17847;31.524;74.366;2022-10-31T16:48:11;98909.00;;;25.62;64.79
31225;BME280;17847;31.524;74.366;2022-10-31T16:51:00;98907.50;;;25.56;64.17
31225;BME280;17847;31.524;74.366;2022-10-31T16:53:43;98904.66;;;25.61;64.89
31225;BME280;17847;31.524;74.366;2022-10-31T16:56:39;98906.47;;;25.66;64.59
31225;BME280;17847;31.524;74.366;2022-10-31T16:59:23;98910.84;;;25.67;64.05
31225;BME280;17847;31.524;74.366;2022-10-31T17:02:14;98905.19;;;25.49;65.40
31225;BME280;17847;31.524;74.366;2022-10-31T17:04:58;98909.16;;;25.43;65.96
31225;BME280;17847;31.524;74.366;2022-10-31T17:07:47;98913.75;;;25.34;65.53
31225;BME280;17847;31.524;74.366;2022-10-31T17:10:24;98910.38;;;25.37;66.37
31225;BME280;17847;31.524;74.366;2022-10-31T17:13:27;98903.88;;;25.33;65.53